sensor_id;sensor_type;location;lat;lon;timestamp;pressure;altitude;pressure_sealevel;temperature;humidity
13934;BME280;7039;52.168;9.866;2023-03-01T00:02:27;102089.09;;;-0.39;72.18
13934;BME280;7039;52.168;9.866;2023-03-01T00:05:06;102090.06;;;-0.34;72.15
13934;BME280;7039;52.168;9.866;2023-03-01T04:06:50;101978.28;;;-2.16;74.01
13934;BME280;7039;52.168;9.866;2023-03-01T04:17:02;101983.84;;;-1.99;73.78
13934;BME280;7039;52.168;9.866;2023-03-01T05:02:14;101980.28;;;-2.66;73.75
13934;BME280;7039;52.168;9.866;2023-03-01T08:48:27;101963.56;;;0.64;75.13
13934;BME280;7039;52.168;9.866;2023-03-01T08:50:54;101961.66;;;0.54;74.86
13934;BME280;7039;52.168;9.866;2023-03-01T08:53:21;101957.53;;;0.62;75.23
13934;BME280;7039;52.168;9.866;2023-03-01T08:55:48;101951.69;;;0.72;74.91
13934;BME280;7039;52.168;9.866;2023-03-01T08:58:14;101953.25;;;0.62;75.73
13934;BME280;7039;52.168;9.866;2023-03-01T09:00:41;101959.63;;;0.33;77.58
13934;BME280;7039;52.168;9.866;2023-03-01T09:03:07;101972.28;;;0.75;76.35
13934;BME280;7039;52.168;9.866;2023-03-01T09:05:35;101967.06;;;0.72;76.62
13934;BME280;7039;52.168;9.866;2023-03-01T09:08:53;101959.44;;;0.75;76.71
13934;BME280;7039;52.168;9.866;2023-03-01T09:50:40;101934.41;;;2.10;73.92
13934;BME280;7039;52.168;9.866;2023-03-01T09:53:10;101935.28;;;2.15;73.59
13934;BME280;7039;52.168;9.866;2023-03-01T09:55:43;101933.75;;;2.36;72.97
13934;BME280;7039;52.168;9.866;2023-03-01T09:58:28;101936.47;;;2.56;70.35
13934;BME280;7039;52.168;9.866;2023-03-01T10:00:59;101933.00;;;2.52;70.70
13934;BME280;7039;52.168;9.866;2023-03-01T10:06:14;101929.75;;;2.85;68.43
13934;BME280;7039;52.168;9.866;2023-03-01T10:08:43;101925.59;;;3.10;66.13
13934;BME280;7039;52.168;9.866;2023-03-01T10:11:20;101924.78;;;3.24;64.88
13934;BME280;7039;52.168;9.866;2023-03-01T10:19:46;101920.47;;;3.21;64.29
13934;BME280;7039;52.168;9.866;2023-03-01T10:22:18;101919.50;;;2.95;63.96
13934;BME280;7039;52.168;9.866;2023-03-01T10:42:02;101924.91;;;3.74;62.16
13934;BME280;7039;52.168;9.866;2023-03-01T10:44:38;101916.34;;;3.98;61.40
13934;BME280;7039;52.168;9.866;2023-03-01T10:57:33;101900.84;;;4.20;60.44
13934;BME280;7039;52.168;9.866;2023-03-01T11:00:18;101903.38;;;4.58;60.36
13934;BME280;7039;52.168;9.866;2023-03-01T11:02:48;101912.75;;;4.96;58.89
13934;BME280;7039;52.168;9.866;2023-03-01T11:05:21;101914.28;;;5.39;57.50
13934;BME280;7039;52.168;9.866;2023-03-01T11:07:51;101902.28;;;5.26;57.16
13934;BME280;7039;52.168;9.866;2023-03-01T11:10:21;101898.03;;;5.08;57.09
13934;BME280;7039;52.168;9.866;2023-03-01T11:12:52;101896.34;;;5.07;55.99
13934;BME280;7039;52.168;9.866;2023-03-01T11:15:23;101894.50;;;5.30;55.77
13934;BME280;7039;52.168;9.866;2023-03-01T11:17:50;101893.59;;;5.36;55.14
13934;BME280;7039;52.168;9.866;2023-03-01T11:20:24;101892.59;;;5.61;54.81
13934;BME280;7039;52.168;9.866;2023-03-01T12:05:28;101846.41;;;6.95;52.63
13934;BME280;7039;52.168;9.866;2023-03-01T12:08:41;101844.25;;;7.26;51.33
13934;BME280;7039;52.168;9.866;2023-03-01T12:11:20;101835.56;;;7.28;51.09
13934;BME280;7039;52.168;9.866;2023-03-01T12:14:09;101843.91;;;7.50;50.77
13934;BME280;7039;52.168;9.866;2023-03-01T12:17:04;101832.31;;;7.73;48.92
13934;BME280;7039;52.168;9.866;2023-03-01T12:23:10;101831.69;;;7.59;49.75
13934;BME280;7039;52.168;9.866;2023-03-01T12:25:51;101820.47;;;7.55;48.71
13934;BME280;7039;52.168;9.866;2023-03-01T12:28:50;101814.72;;;7.90;49.63
13934;BME280;7039;52.168;9.866;2023-03-01T12:35:20;101803.75;;;7.71;48.30
13934;BME280;7039;52.168;9.866;2023-03-01T12:43:20;101798.44;;;8.26;48.85
13934;BME280;7039;52.168;9.866;2023-03-01T14:06:50;101703.00;;;12.26;40.60
13934;BME280;7039;52.168;9.866;2023-03-01T14:20:23;101679.00;;;13.25;38.75
13934;BME280;7039;52.168;9.866;2023-03-01T14:52:56;101662.00;;;17.19;33.85
13934;BME280;7039;52.168;9.866;2023-03-01T14:55:27;101666.50;;;17.47;33.59
13934;BME280;7039;52.168;9.866;2023-03-01T14:57:56;101654.25;;;17.01;33.55
13934;BME280;7039;52.168;9.866;2023-03-01T15:00:25;101647.97;;;17.63;32.81
13934;BME280;7039;52.168;9.866;2023-03-01T15:02:54;101651.59;;;17.46;32.70
13934;BME280;7039;52.168;9.866;2023-03-01T15:05:25;101646.72;;;17.54;33.04
13934;BME280;7039;52.168;9.866;2023-03-01T15:07:56;101633.47;;;17.56;33.21
13934;BME280;7039;52.168;9.866;2023-03-01T15:10:25;101630.41;;;16.73;33.79
13934;BME280;7039;52.168;9.866;2023-03-01T15:12:52;101628.66;;;16.25;34.64
13934;BME280;7039;52.168;9.866;2023-03-01T15:18:14;101620.72;;;14.92;35.33
13934;BME280;7039;52.168;9.866;2023-03-01T15:20:42;101610.91;;;14.96;35.63
13934;BME280;7039;52.168;9.866;2023-03-01T15:23:19;101612.63;;;14.97;35.26
13934;BME280;7039;52.168;9.866;2023-03-01T15:25:46;101615.56;;;15.08;35.77
13934;BME280;7039;52.168;9.866;2023-03-01T15:28:20;101610.78;;;15.50;34.69
13934;BME280;7039;52.168;9.866;2023-03-01T15:30:53;101605.09;;;15.75;34.36
13934;BME280;7039;52.168;9.866;2023-03-01T15:33:29;101604.94;;;15.78;34.46
13934;BME280;7039;52.168;9.866;2023-03-01T15:35:57;101607.31;;;16.30;33.42
13934;BME280;7039;52.168;9.866;2023-03-01T15:38:33;101600.03;;;16.51;33.71
13934;BME280;7039;52.168;9.866;2023-03-01T15:41:02;101591.75;;;16.57;33.77
13934;BME280;7039;52.168;9.866;2023-03-01T15:43:43;101599.00;;;17.00;33.16
13934;BME280;7039;52.168;9.866;2023-03-01T15:46:17;101591.13;;;16.22;34.03
13934;BME280;7039;52.168;9.866;2023-03-01T15:48:46;101596.09;;;16.58;34.45
13934;BME280;7039;52.168;9.866;2023-03-01T15:51:15;101582.59;;;15.36;35.00
13934;BME280;7039;52.168;9.866;2023-03-01T15:53:45;101576.50;;;14.66;36.18
13934;BME280;7039;52.168;9.866;2023-03-01T15:56:14;101572.66;;;14.36;36.43
13934;BME280;7039;52.168;9.866;2023-03-01T15:58:40;101566.88;;;13.54;36.72
13934;BME280;7039;52.168;9.866;2023-03-01T16:01:11;101570.16;;;12.77;38.46
13934;BME280;7039;52.168;9.866;2023-03-01T16:03:38;101566.94;;;11.34;41.29
13934;BME280;7039;52.168;9.866;2023-03-01T16:06:05;101561.81;;;10.54;41.90
13934;BME280;7039;52.168;9.866;2023-03-01T16:08:32;101557.84;;;10.12;42.15
13934;BME280;7039;52.168;9.866;2023-03-01T16:10:59;101553.16;;;9.95;43.40
13934;BME280;7039;52.168;9.866;2023-03-01T16:13:30;101553.13;;;9.36;44.22
13934;BME280;7039;52.168;9.866;2023-03-01T16:15:56;101552.28;;;9.03;45.04
13934;BME280;7039;52.168;9.866;2023-03-01T16:18:23;101548.16;;;8.95;45.38
13934;BME280;7039;52.168;9.866;2023-03-01T16:20:49;101559.53;;;8.90;45.12
13934;BME280;7039;52.168;9.866;2023-03-01T16:23:16;101554.75;;;8.74;45.76
13934;BME280;7039;52.168;9.866;2023-03-01T16:25:42;101557.63;;;8.64;45.92
13934;BME280;7039;52.168;9.866;2023-03-01T16:28:10;101556.75;;;8.24;47.96
13934;BME280;7039;52.168;9.866;2023-03-01T16:30:38;101555.66;;;7.97;47.61
13934;BME280;7039;52.168;9.866;2023-03-01T16:33:05;101558.59;;;7.82;48.29
13934;BME280;7039;52.168;9.866;2023-03-01T16:35:33;101559.31;;;7.88;48.30
13934;BME280;7039;52.168;9.866;2023-03-01T16:38:00;101565.84;;;7.66;47.54
13934;BME280;7039;52.168;9.866;2023-03-01T16:40:28;101563.16;;;7.70;49.02
13934;BME280;7039;52.168;9.866;2023-03-01T16:42:56;101568.34;;;7.69;49.02
13934;BME280;7039;52.168;9.866;2023-03-01T16:45:27;101575.19;;;7.29;49.59
13934;BME280;7039;52.168;9.866;2023-03-01T16:47:54;101581.16;;;7.33;49.85
13934;BME280;7039;52.168;9.866;2023-03-01T16:50:21;101579.38;;;7.37;48.69
13934;BME280;7039;52.168;9.866;2023-03-01T16:52:47;101584.84;;;7.21;48.81
13934;BME280;7039;52.168;9.866;2023-03-01T16:55:14;101580.75;;;7.08;50.09
13934;BME280;7039;52.168;9.866;2023-03-01T16:57:40;101590.53;;;6.92;51.38
13934;BME280;7039;52.168;9.866;2023-03-01T17:00:08;101588.84;;;6.91;51.01
13934;BME280;7039;52.168;9.866;2023-03-01T17:02:37;101591.53;;;6.85;51.64
13934;BME280;7039;52.168;9.866;2023-03-01T17:05:04;101591.91;;;6.60;51.91
13934;BME280;7039;52.168;9.866;2023-03-01T17:07:32;101595.63;;;6.45;51.83
13934;BME280;7039;52.168;9.866;2023-03-01T17:09:59;101587.00;;;6.45;51.78
13934;BME280;7039;52.168;9.866;2023-03-01T17:12:26;101584.63;;;6.28;52.77
13934;BME280;7039;52.168;9.866;2023-03-01T17:14:53;101577.91;;;6.15;53.34
13934;BME280;7039;52.168;9.866;2023-03-01T17:17:19;101587.53;;;6.06;53.04
13934;BME280;7039;52.168;9.866;2023-03-01T17:19:47;101586.53;;;6.15;52.31
13934;BME280;7039;52.168;9.866;2023-03-01T17:22:14;101581.63;;;5.95;53.25
13934;BME280;7039;52.168;9.866;2023-03-01T17:24:42;101581.66;;;5.91;53.57
13934;BME280;7039;52.168;9.866;2023-03-01T17:27:10;101582.66;;;5.80;53.30
13934;BME280;7039;52.168;9.866;2023-03-01T17:29:37;101589.59;;;5.77;53.36
13934;BME280;7039;52.168;9.866;2023-03-01T17:32:04;101596.59;;;5.69;52.84
13934;BME280;7039;52.168;9.866;2023-03-01T17:34:32;101598.41;;;5.62;54.89
13934;BME280;7039;52.168;9.866;2023-03-01T17:37:00;101589.00;;;5.52;54.43
13934;BME280;7039;52.168;9.866;2023-03-01T17:39:27;101596.78;;;5.52;54.85
13934;BME280;7039;52.168;9.866;2023-03-01T17:42:00;101602.13;;;5.35;55.18
13934;BME280;7039;52.168;9.866;2023-03-01T17:44:27;101601.34;;;5.30;55.12
13934;BME280;7039;52.168;9.866;2023-03-01T17:46:54;101607.38;;;5.29;54.80
13934;BME280;7039;52.168;9.866;2023-03-01T17:49:20;101616.19;;;5.09;55.52
13934;BME280;7039;52.168;9.866;2023-03-01T17:51:47;101613.69;;;5.00;55.52
13934;BME280;7039;52.168;9.866;2023-03-01T17:54:14;101605.13;;;4.90;56.30
13934;BME280;7039;52.168;9.866;2023-03-01T18:03:14;101611.59;;;4.29;58.69
13934;BME280;7039;52.168;9.866;2023-03-01T18:05:42;101609.03;;;4.28;59.19
13934;BME280;7039;52.168;9.866;2023-03-01T18:08:33;101601.31;;;4.15;59.04
13934;BME280;7039;52.168;9.866;2023-03-01T18:11:03;101608.16;;;4.26;59.70
13934;BME280;7039;52.168;9.866;2023-03-01T18:13:30;101604.78;;;4.16;59.57
13934;BME280;7039;52.168;9.866;2023-03-01T18:15:56;101612.50;;;4.17;60.05
13934;BME280;7039;52.168;9.866;2023-03-01T18:18:25;101604.84;;;4.07;60.14
13934;BME280;7039;52.168;9.866;2023-03-01T18:20:55;101602.28;;;4.02;60.98
13934;BME280;7039;52.168;9.866;2023-03-01T18:23:21;101604.88;;;3.97;61.43
13934;BME280;7039;52.168;9.866;2023-03-01T18:25:48;101605.75;;;3.98;60.88
13934;BME280;7039;52.168;9.866;2023-03-01T18:28:16;101604.00;;;4.05;60.89
13934;BME280;7039;52.168;9.866;2023-03-01T18:30:42;101608.28;;;4.00;60.71
13934;BME280;7039;52.168;9.866;2023-03-01T18:33:09;101606.69;;;3.75;61.39
13934;BME280;7039;52.168;9.866;2023-03-01T18:35:36;101609.28;;;3.72;61.52
13934;BME280;7039;52.168;9.866;2023-03-01T18:38:02;101598.97;;;3.65;61.65
13934;BME280;7039;52.168;9.866;2023-03-01T18:40:29;101597.31;;;3.47;62.24
13934;BME280;7039;52.168;9.866;2023-03-01T18:42:56;101599.00;;;3.55;61.91
13934;BME280;7039;52.168;9.866;2023-03-01T18:45:31;101600.72;;;3.47;62.53
13934;BME280;7039;52.168;9.866;2023-03-01T18:47:59;101587.00;;;3.31;62.29
13934;BME280;7039;52.168;9.866;2023-03-01T18:50:38;101592.19;;;3.39;62.55
13934;BME280;7039;52.168;9.866;2023-03-01T18:53:05;101593.94;;;3.14;63.37
13934;BME280;7039;52.168;9.866;2023-03-01T18:55:35;101587.91;;;3.17;63.67
13934;BME280;7039;52.168;9.866;2023-03-01T18:58:05;101593.94;;;2.94;64.10
13934;BME280;7039;52.168;9.866;2023-03-01T19:00:37;101595.66;;;3.00;63.90
13934;BME280;7039;52.168;9.866;2023-03-01T19:03:05;101589.66;;;2.81;64.22
13934;BME280;7039;52.168;9.866;2023-03-01T19:05:47;101593.97;;;2.82;64.80
13934;BME280;7039;52.168;9.866;2023-03-01T19:08:28;101599.97;;;2.73;64.38
13934;BME280;7039;52.168;9.866;2023-03-01T19:10:59;101601.69;;;2.72;64.33
13934;BME280;7039;52.168;9.866;2023-03-01T19:14:03;101603.41;;;2.74;64.78
13934;BME280;7039;52.168;9.866;2023-03-01T19:16:53;101595.66;;;2.67;64.98
13934;BME280;7039;52.168;9.866;2023-03-01T19:19:23;101600.84;;;2.61;65.31
13934;BME280;7039;52.168;9.866;2023-03-01T19:21:57;101608.53;;;2.58;65.65
13934;BME280;7039;52.168;9.866;2023-03-01T19:24:45;101611.09;;;2.52;65.72
13934;BME280;7039;52.168;9.866;2023-03-01T19:27:12;101609.38;;;2.42;65.87
13934;BME280;7039;52.168;9.866;2023-03-01T19:30:01;101618.84;;;2.55;66.08
13934;BME280;7039;52.168;9.866;2023-03-01T19:32:35;101624.84;;;2.56;65.66
13934;BME280;7039;52.168;9.866;2023-03-01T19:35:18;101624.81;;;2.40;66.37
13934;BME280;7039;52.168;9.866;2023-03-01T19:41:14;101617.94;;;2.33;66.41
13934;BME280;7039;52.168;9.866;2023-03-01T20:55:11;101617.63;;;1.53;68.94
13934;BME280;7039;52.168;9.866;2023-03-01T20:57:38;101616.72;;;1.50;68.76
13934;BME280;7039;52.168;9.866;2023-03-01T21:00:06;101624.47;;;1.59;68.55
13934;BME280;7039;52.168;9.866;2023-03-01T21:02:32;101611.53;;;1.40;68.40
13934;BME280;7039;52.168;9.866;2023-03-01T21:04:59;101607.31;;;1.49;68.45
13934;BME280;7039;52.168;9.866;2023-03-01T21:07:25;101614.13;;;1.42;68.71
13934;BME280;7039;52.168;9.866;2023-03-01T21:09:52;101613.25;;;1.43;68.69
13934;BME280;7039;52.168;9.866;2023-03-01T21:12:20;101614.94;;;1.35;68.77
13934;BME280;7039;52.168;9.866;2023-03-01T21:14:46;101618.28;;;1.24;68.87
13934;BME280;7039;52.168;9.866;2023-03-01T21:17:14;101621.72;;;1.27;68.97
13934;BME280;7039;52.168;9.866;2023-03-01T21:19:42;101619.16;;;1.28;69.18
13934;BME280;7039;52.168;9.866;2023-03-01T21:22:10;101621.63;;;1.10;69.10
13934;BME280;7039;52.168;9.866;2023-03-01T21:24:36;101617.22;;;0.93;69.52
13934;BME280;7039;52.168;9.866;2023-03-01T21:27:03;101625.06;;;1.13;69.64
13934;BME280;7039;52.168;9.866;2023-03-01T21:29:32;101619.00;;;1.05;69.66
13934;BME280;7039;52.168;9.866;2023-03-01T21:31:59;101625.97;;;1.18;68.97
13934;BME280;7039;52.168;9.866;2023-03-01T21:34:25;101616.50;;;1.14;69.16
13934;BME280;7039;52.168;9.866;2023-03-01T21:36:52;101611.47;;;1.25;69.00
13934;BME280;7039;52.168;9.866;2023-03-01T21:39:19;101613.16;;;1.26;68.91
13934;BME280;7039;52.168;9.866;2023-03-01T21:41:48;101605.47;;;1.28;69.04
13934;BME280;7039;52.168;9.866;2023-03-01T21:44:15;101597.69;;;1.17;68.69
13934;BME280;7039;52.168;9.866;2023-03-01T21:46:43;101601.19;;;1.25;68.64
13934;BME280;7039;52.168;9.866;2023-03-01T21:49:09;101596.78;;;1.10;68.71
13934;BME280;7039;52.168;9.866;2023-03-01T21:51:36;101608.78;;;1.13;69.12
13934;BME280;7039;52.168;9.866;2023-03-01T21:54:03;101599.25;;;0.99;69.62
13934;BME280;7039;52.168;9.866;2023-03-01T21:56:31;101600.09;;;0.95;70.03
13934;BME280;7039;52.168;9.866;2023-03-01T21:58:59;101603.41;;;0.83;70.03
13934;BME280;7039;52.168;9.866;2023-03-01T22:01:27;101608.69;;;1.00;70.18
13934;BME280;7039;52.168;9.866;2023-03-01T22:03:56;101601.06;;;1.11;69.70
13934;BME280;7039;52.168;9.866;2023-03-01T22:06:25;101593.41;;;1.17;69.17
13934;BME280;7039;52.168;9.866;2023-03-01T22:08:55;101589.94;;;1.09;69.23
13934;BME280;7039;52.168;9.866;2023-03-01T22:11:23;101580.47;;;1.03;69.56
13934;BME280;7039;52.168;9.866;2023-03-01T22:13:52;101581.28;;;0.96;69.34
13934;BME280;7039;52.168;9.866;2023-03-01T22:16:21;101577.81;;;0.94;69.51
13934;BME280;7039;52.168;9.866;2023-03-01T22:18:49;101577.84;;;0.99;69.82
13934;BME280;7039;52.168;9.866;2023-03-01T22:21:17;101576.00;;;0.81;69.38
13934;BME280;7039;52.168;9.866;2023-03-01T22:23:43;101581.63;;;0.37;70.06
13934;BME280;7039;52.168;9.866;2023-03-01T22:26:20;101575.06;;;-0.16;71.95
13934;BME280;7039;52.168;9.866;2023-03-01T22:28:47;101575.66;;;-0.37;73.17
13934;BME280;7039;52.168;9.866;2023-03-01T22:31:14;101577.28;;;-0.44;73.47
13934;BME280;7039;52.168;9.866;2023-03-01T22:33:40;101568.03;;;-0.31;73.30
13934;BME280;7039;52.168;9.866;2023-03-01T22:36:07;101558.56;;;-0.36;73.48
13934;BME280;7039;52.168;9.866;2023-03-01T22:38:35;101564.53;;;-0.40;73.87
13934;BME280;7039;52.168;9.866;2023-03-01T22:41:04;101561.81;;;-0.51;74.33
13934;BME280;7039;52.168;9.866;2023-03-01T22:43:31;101560.22;;;-0.43;74.09
13934;BME280;7039;52.168;9.866;2023-03-01T22:45:58;101562.06;;;-0.30;74.35
13934;BME280;7039;52.168;9.866;2023-03-01T22:48:25;101557.94;;;-0.18;73.77
13934;BME280;7039;52.168;9.866;2023-03-01T22:50:52;101554.56;;;-0.14;73.58
13934;BME280;7039;52.168;9.866;2023-03-01T22:53:18;101555.22;;;-0.34;74.21
13934;BME280;7039;52.168;9.866;2023-03-01T22:55:46;101556.88;;;-0.34;74.52
13934;BME280;7039;52.168;9.866;2023-03-01T22:58:12;101563.16;;;-0.09;74.03
13934;BME280;7039;52.168;9.866;2023-03-01T23:00:39;101566.69;;;-0.01;73.74
13934;BME280;7039;52.168;9.866;2023-03-01T23:03:06;101557.28;;;-0.01;73.29
13934;BME280;7039;52.168;9.866;2023-03-01T23:05:32;101566.94;;;0.24;72.89
13934;BME280;7039;52.168;9.866;2023-03-01T23:07:58;101569.56;;;0.31;72.65
13934;BME280;7039;52.168;9.866;2023-03-01T23:10:25;101566.25;;;0.43;72.17
13934;BME280;7039;52.168;9.866;2023-03-01T23:12:54;101568.03;;;0.46;71.76
13934;BME280;7039;52.168;9.866;2023-03-01T23:15:20;101565.50;;;0.50;71.48
13934;BME280;7039;52.168;9.866;2023-03-01T23:17:47;101572.16;;;0.30;71.61
13934;BME280;7039;52.168;9.866;2023-03-01T23:20:14;101573.19;;;0.50;71.56
13934;BME280;7039;52.168;9.866;2023-03-01T23:22:41;101578.38;;;0.56;71.20
13934;BME280;7039;52.168;9.866;2023-03-01T23:25:09;101574.97;;;0.60;70.72
13934;BME280;7039;52.168;9.866;2023-03-01T23:27:36;101574.06;;;0.54;70.85
13934;BME280;7039;52.168;9.866;2023-03-01T23:30:06;101569.91;;;0.67;70.65
13934;BME280;7039;52.168;9.866;2023-03-01T23:32:33;101565.38;;;0.39;70.98
13934;BME280;7039;52.168;9.866;2023-03-01T23:35:06;101569.88;;;0.62;70.52
13934;BME280;7039;52.168;9.866;2023-03-01T23:37:33;101570.53;;;0.43;70.76
13934;BME280;7039;52.168;9.866;2023-03-01T23:40:00;101574.91;;;0.51;70.49
13934;BME280;7039;52.168;9.866;2023-03-01T23:42:30;101562.72;;;0.32;70.44
13934;BME280;7039;52.168;9.866;2023-03-01T23:44:56;101565.03;;;0.06;71.68
13934;BME280;7039;52.168;9.866;2023-03-01T23:47:24;101571.13;;;0.15;71.78
13934;BME280;7039;52.168;9.866;2023-03-01T23:49:50;101559.06;;;0.07;72.00
13934;BME280;7039;52.168;9.866;2023-03-01T23:52:17;101567.69;;;0.12;71.61
13934;BME280;7039;52.168;9.866;2023-03-01T23:54:43;101565.91;;;0.06;71.96
13934;BME280;7039;52.168;9.866;2023-03-01T23:57:10;101565.94;;;0.09;71.93
13934;BME280;7039;52.168;9.866;2023-03-01T23:59:37;101568.47;;;0.06;71.38
